Terminal Aerodrome Forecast
Issued by NWS

Home | Current Version | Previous Version | Graphics & Text | Print | Product List | Glossary On
Versions: 1 2 3 4 5 6 7 8 9 10 11 12 13 14 15 16 17
000
FTUS43 KICT 180500 AAA
TAFHUT
TAF AMD
KHUT 180537Z 1806/1906 02018G28KT 2SM -TSRA BKN070CB
     FM180630 01015KT P6SM SCT060 BKN120
     FM180900 10008KT P6SM SCT250
     FM181200 18009KT P6SM SCT250
     FM181900 22013KT P6SM SCT250=

USA.gov is the U.S. government's official web portal to all federal, state and local government web resources and services.